sensor_id;sensor_type;location;lat;lon;timestamp;temperature;humidity
19025;DHT22;9645;51.448;6.260;2022-12-07T00:00:15;4.50;99.90
19025;DHT22;9645;51.448;6.260;2022-12-07T00:02:42;4.40;99.90
19025;DHT22;9645;51.448;6.260;2022-12-07T00:05:09;4.40;99.90
19025;DHT22;9645;51.448;6.260;2022-12-07T00:07:38;4.40;99.90
19025;DHT22;9645;51.448;6.260;2022-12-07T00:10:06;4.30;99.90
19025;DHT22;9645;51.448;6.260;2022-12-07T00:12:33;4.30;99.90
19025;DHT22;9645;51.448;6.260;2022-12-07T00:15:00;4.30;99.90
19025;DHT22;9645;51.448;6.260;2022-12-07T00:17:27;4.30;99.90
19025;DHT22;9645;51.448;6.260;2022-12-07T00:19:54;4.30;99.90
19025;DHT22;9645;51.448;6.260;2022-12-07T00:22:21;4.20;99.90
19025;DHT22;9645;51.448;6.260;2022-12-07T00:24:49;4.20;99.90
19025;DHT22;9645;51.448;6.260;2022-12-07T00:27:16;4.20;99.90
19025;DHT22;9645;51.448;6.260;2022-12-07T00:29:43;4.30;99.90
19025;DHT22;9645;51.448;6.260;2022-12-07T00:32:10;4.10;99.90
19025;DHT22;9645;51.448;6.260;2022-12-07T00:34:37;4.10;99.90
19025;DHT22;9645;51.448;6.260;2022-12-07T00:37:04;4.10;99.90
19025;DHT22;9645;51.448;6.260;2022-12-07T00:39:31;4.10;99.90
19025;DHT22;9645;51.448;6.260;2022-12-07T00:41:59;4.00;99.90
19025;DHT22;9645;51.448;6.260;2022-12-07T00:46:53;4.00;99.90
19025;DHT22;9645;51.448;6.260;2022-12-07T00:49:21;3.90;99.90
19025;DHT22;9645;51.448;6.260;2022-12-07T00:51:48;4.00;99.90
19025;DHT22;9645;51.448;6.260;2022-12-07T00:54:15;4.10;99.90
19025;DHT22;9645;51.448;6.260;2022-12-07T00:56:42;4.10;99.90
19025;DHT22;9645;51.448;6.260;2022-12-07T00:59:14;4.10;99.90
19025;DHT22;9645;51.448;6.260;2022-12-07T01:01:41;4.10;99.90
19025;DHT22;9645;51.448;6.260;2022-12-07T01:04:08;4.10;99.90
19025;DHT22;9645;51.448;6.260;2022-12-07T01:06:35;4.30;99.90
19025;DHT22;9645;51.448;6.260;2022-12-07T01:09:03;4.20;99.90
19025;DHT22;9645;51.448;6.260;2022-12-07T01:11:31;4.20;99.90
19025;DHT22;9645;51.448;6.260;2022-12-07T01:13:59;4.10;99.90
19025;DHT22;9645;51.448;6.260;2022-12-07T01:16:29;4.00;99.90
19025;DHT22;9645;51.448;6.260;2022-12-07T01:18:58;3.80;99.90
19025;DHT22;9645;51.448;6.260;2022-12-07T01:21:27;3.90;99.90
19025;DHT22;9645;51.448;6.260;2022-12-07T01:23:54;3.90;99.90
19025;DHT22;9645;51.448;6.260;2022-12-07T01:26:24;3.80;99.90
19025;DHT22;9645;51.448;6.260;2022-12-07T01:28:52;3.80;99.90
19025;DHT22;9645;51.448;6.260;2022-12-07T01:31:22;3.80;99.90
19025;DHT22;9645;51.448;6.260;2022-12-07T01:33:52;3.80;99.90
19025;DHT22;9645;51.448;6.260;2022-12-07T01:36:22;3.80;99.90
19025;DHT22;9645;51.448;6.260;2022-12-07T01:38:55;3.60;99.90
19025;DHT22;9645;51.448;6.260;2022-12-07T01:41:24;3.70;99.90
19025;DHT22;9645;51.448;6.260;2022-12-07T01:44:19;3.60;99.90
19025;DHT22;9645;51.448;6.260;2022-12-07T01:46:47;3.50;99.90
19025;DHT22;9645;51.448;6.260;2022-12-07T01:49:21;3.50;99.90
19025;DHT22;9645;51.448;6.260;2022-12-07T01:51:52;3.60;99.90
19025;DHT22;9645;51.448;6.260;2022-12-07T01:54:20;3.60;99.90
19025;DHT22;9645;51.448;6.260;2022-12-07T01:56:50;3.60;99.90
19025;DHT22;9645;51.448;6.260;2022-12-07T01:59:19;3.60;99.90
19025;DHT22;9645;51.448;6.260;2022-12-07T02:01:48;3.50;99.90
19025;DHT22;9645;51.448;6.260;2022-12-07T02:06:44;3.40;99.90
19025;DHT22;9645;51.448;6.260;2022-12-07T02:09:12;3.40;99.90
19025;DHT22;9645;51.448;6.260;2022-12-07T02:11:40;3.30;99.90
19025;DHT22;9645;51.448;6.260;2022-12-07T02:14:07;3.40;99.90
19025;DHT22;9645;51.448;6.260;2022-12-07T02:16:39;3.30;99.90
19025;DHT22;9645;51.448;6.260;2022-12-07T02:19:39;3.20;99.90
19025;DHT22;9645;51.448;6.260;2022-12-07T02:22:26;3.00;99.90
19025;DHT22;9645;51.448;6.260;2022-12-07T02:25:05;3.10;99.90
19025;DHT22;9645;51.448;6.260;2022-12-07T02:27:43;3.00;99.90
19025;DHT22;9645;51.448;6.260;2022-12-07T02:30:15;3.00;99.90
19025;DHT22;9645;51.448;6.260;2022-12-07T02:32:49;3.00;99.90
19025;DHT22;9645;51.448;6.260;2022-12-07T02:35:21;3.00;99.90
19025;DHT22;9645;51.448;6.260;2022-12-07T02:37:57;3.10;99.90
19025;DHT22;9645;51.448;6.260;2022-12-07T02:40:29;3.00;99.90
19025;DHT22;9645;51.448;6.260;2022-12-07T02:43:07;2.90;99.90
19025;DHT22;9645;51.448;6.260;2022-12-07T02:45:39;3.00;99.90
19025;DHT22;9645;51.448;6.260;2022-12-07T02:48:08;3.00;99.90
19025;DHT22;9645;51.448;6.260;2022-12-07T02:55:36;2.90;99.90
19025;DHT22;9645;51.448;6.260;2022-12-07T02:58:14;2.70;99.90
19025;DHT22;9645;51.448;6.260;2022-12-07T03:00:52;2.80;99.90
19025;DHT22;9645;51.448;6.260;2022-12-07T03:03:22;2.90;99.90
19025;DHT22;9645;51.448;6.260;2022-12-07T03:06:06;2.90;99.90
19025;DHT22;9645;51.448;6.260;2022-12-07T03:08:44;2.90;99.90
19025;DHT22;9645;51.448;6.260;2022-12-07T03:11:17;3.00;99.90
19025;DHT22;9645;51.448;6.260;2022-12-07T03:13:50;3.00;99.90
19025;DHT22;9645;51.448;6.260;2022-12-07T03:16:23;2.80;99.90
19025;DHT22;9645;51.448;6.260;2022-12-07T03:18:54;2.70;99.90
19025;DHT22;9645;51.448;6.260;2022-12-07T03:21:25;2.60;99.90
19025;DHT22;9645;51.448;6.260;2022-12-07T03:23:55;2.60;99.90
19025;DHT22;9645;51.448;6.260;2022-12-07T03:26:26;2.50;99.90
19025;DHT22;9645;51.448;6.260;2022-12-07T03:29:00;2.50;99.90
19025;DHT22;9645;51.448;6.260;2022-12-07T03:31:32;2.50;99.90
19025;DHT22;9645;51.448;6.260;2022-12-07T03:34:03;2.40;99.90
19025;DHT22;9645;51.448;6.260;2022-12-07T03:36:37;2.40;99.90
19025;DHT22;9645;51.448;6.260;2022-12-07T03:39:14;2.50;99.90
19025;DHT22;9645;51.448;6.260;2022-12-07T03:41:45;2.60;99.90
19025;DHT22;9645;51.448;6.260;2022-12-07T03:44:13;2.70;99.90
19025;DHT22;9645;51.448;6.260;2022-12-07T03:46:48;2.60;99.90
19025;DHT22;9645;51.448;6.260;2022-12-07T03:49:22;2.50;99.90
19025;DHT22;9645;51.448;6.260;2022-12-07T03:51:54;2.60;99.90
19025;DHT22;9645;51.448;6.260;2022-12-07T03:54:27;2.50;99.90
19025;DHT22;9645;51.448;6.260;2022-12-07T03:56:57;2.50;99.90
19025;DHT22;9645;51.448;6.260;2022-12-07T03:59:25;2.60;99.90
19025;DHT22;9645;51.448;6.260;2022-12-07T04:01:55;3.40;99.90
19025;DHT22;9645;51.448;6.260;2022-12-07T04:04:23;2.60;99.90
19025;DHT22;9645;51.448;6.260;2022-12-07T04:06:51;2.60;99.90
19025;DHT22;9645;51.448;6.260;2022-12-07T04:09:18;2.60;99.90
19025;DHT22;9645;51.448;6.260;2022-12-07T04:14:12;2.80;99.90
19025;DHT22;9645;51.448;6.260;2022-12-07T04:16:45;2.80;99.90
19025;DHT22;9645;51.448;6.260;2022-12-07T04:19:14;2.90;99.90
19025;DHT22;9645;51.448;6.260;2022-12-07T04:21:41;2.80;99.90
19025;DHT22;9645;51.448;6.260;2022-12-07T04:24:09;2.80;99.90
19025;DHT22;9645;51.448;6.260;2022-12-07T04:26:36;2.70;99.90
19025;DHT22;9645;51.448;6.260;2022-12-07T04:29:03;2.80;99.90
19025;DHT22;9645;51.448;6.260;2022-12-07T04:33:57;2.60;99.90
19025;DHT22;9645;51.448;6.260;2022-12-07T04:36:26;2.50;99.90
19025;DHT22;9645;51.448;6.260;2022-12-07T04:38:53;2.50;99.90
19025;DHT22;9645;51.448;6.260;2022-12-07T04:41:21;2.60;99.90
19025;DHT22;9645;51.448;6.260;2022-12-07T04:43:53;2.50;99.90
19025;DHT22;9645;51.448;6.260;2022-12-07T04:46:20;2.50;99.90
19025;DHT22;9645;51.448;6.260;2022-12-07T04:48:48;2.30;99.90
19025;DHT22;9645;51.448;6.260;2022-12-07T04:51:19;2.30;99.90
19025;DHT22;9645;51.448;6.260;2022-12-07T04:53:48;2.40;99.90
19025;DHT22;9645;51.448;6.260;2022-12-07T04:56:15;2.40;99.90
19025;DHT22;9645;51.448;6.260;2022-12-07T04:58:43;2.40;99.90
19025;DHT22;9645;51.448;6.260;2022-12-07T05:01:11;2.50;99.90
19025;DHT22;9645;51.448;6.260;2022-12-07T05:03:39;2.40;99.90
19025;DHT22;9645;51.448;6.260;2022-12-07T05:06:07;2.60;99.90
19025;DHT22;9645;51.448;6.260;2022-12-07T05:08:34;2.60;99.90
19025;DHT22;9645;51.448;6.260;2022-12-07T05:11:04;2.70;99.90
19025;DHT22;9645;51.448;6.260;2022-12-07T05:13:31;2.80;99.90
19025;DHT22;9645;51.448;6.260;2022-12-07T05:15:59;2.70;99.90
19025;DHT22;9645;51.448;6.260;2022-12-07T05:20:53;2.80;99.90
19025;DHT22;9645;51.448;6.260;2022-12-07T05:25:47;2.80;99.90
19025;DHT22;9645;51.448;6.260;2022-12-07T05:28:15;2.80;99.90
19025;DHT22;9645;51.448;6.260;2022-12-07T05:33:10;2.80;99.90
19025;DHT22;9645;51.448;6.260;2022-12-07T05:35:37;2.90;99.90
19025;DHT22;9645;51.448;6.260;2022-12-07T05:38:04;2.80;99.90
19025;DHT22;9645;51.448;6.260;2022-12-07T05:45:27;2.90;99.90
19025;DHT22;9645;51.448;6.260;2022-12-07T05:47:54;2.90;99.90
19025;DHT22;9645;51.448;6.260;2022-12-07T05:50:21;3.00;99.90
19025;DHT22;9645;51.448;6.260;2022-12-07T05:52:48;3.10;99.90
19025;DHT22;9645;51.448;6.260;2022-12-07T05:55:15;2.90;99.90
19025;DHT22;9645;51.448;6.260;2022-12-07T05:57:42;2.90;99.90
19025;DHT22;9645;51.448;6.260;2022-12-07T06:00:32;2.90;99.90
19025;DHT22;9645;51.448;6.260;2022-12-07T06:05:25;3.00;99.90
19025;DHT22;9645;51.448;6.260;2022-12-07T06:07:53;2.80;99.90
19025;DHT22;9645;51.448;6.260;2022-12-07T06:12:47;2.90;99.90
19025;DHT22;9645;51.448;6.260;2022-12-07T06:15:13;2.90;99.90
19025;DHT22;9645;51.448;6.260;2022-12-07T06:17:42;2.80;99.90
19025;DHT22;9645;51.448;6.260;2022-12-07T06:20:09;2.70;99.90
19025;DHT22;9645;51.448;6.260;2022-12-07T06:22:36;2.60;99.90
19025;DHT22;9645;51.448;6.260;2022-12-07T06:25:03;2.60;99.90
19025;DHT22;9645;51.448;6.260;2022-12-07T06:27:30;2.50;99.90
19025;DHT22;9645;51.448;6.260;2022-12-07T06:29:58;2.50;99.90
19025;DHT22;9645;51.448;6.260;2022-12-07T06:32:25;2.50;99.90
19025;DHT22;9645;51.448;6.260;2022-12-07T06:34:53;2.60;99.90
19025;DHT22;9645;51.448;6.260;2022-12-07T06:39:48;4.30;99.90
19025;DHT22;9645;51.448;6.260;2022-12-07T06:44:43;2.60;99.90
19025;DHT22;9645;51.448;6.260;2022-12-07T06:47:11;2.60;99.90
19025;DHT22;9645;51.448;6.260;2022-12-07T06:52:06;2.60;99.90
19025;DHT22;9645;51.448;6.260;2022-12-07T06:54:33;2.50;99.90
19025;DHT22;9645;51.448;6.260;2022-12-07T06:59:27;2.30;99.90
19025;DHT22;9645;51.448;6.260;2022-12-07T07:04:22;2.30;99.90
19025;DHT22;9645;51.448;6.260;2022-12-07T07:06:49;2.30;99.90
19025;DHT22;9645;51.448;6.260;2022-12-07T07:09:17;2.10;99.90
19025;DHT22;9645;51.448;6.260;2022-12-07T07:11:44;2.10;99.90
19025;DHT22;9645;51.448;6.260;2022-12-07T07:14:12;2.10;99.90
19025;DHT22;9645;51.448;6.260;2022-12-07T07:16:44;2.10;99.90
19025;DHT22;9645;51.448;6.260;2022-12-07T07:19:13;2.10;99.90
19025;DHT22;9645;51.448;6.260;2022-12-07T07:21:40;2.20;99.90
19025;DHT22;9645;51.448;6.260;2022-12-07T07:24:07;2.10;99.90
19025;DHT22;9645;51.448;6.260;2022-12-07T07:26:35;2.10;99.90
19025;DHT22;9645;51.448;6.260;2022-12-07T07:29:02;2.20;99.90
19025;DHT22;9645;51.448;6.260;2022-12-07T07:31:29;2.30;99.90
19025;DHT22;9645;51.448;6.260;2022-12-07T07:36:27;2.50;99.90
19025;DHT22;9645;51.448;6.260;2022-12-07T07:41:21;2.50;99.90
19025;DHT22;9645;51.448;6.260;2022-12-07T07:43:50;2.50;99.90
19025;DHT22;9645;51.448;6.260;2022-12-07T07:46:17;2.50;99.90
19025;DHT22;9645;51.448;6.260;2022-12-07T07:48:44;2.50;99.90
19025;DHT22;9645;51.448;6.260;2022-12-07T07:51:11;2.60;99.90
19025;DHT22;9645;51.448;6.260;2022-12-07T07:53:39;2.50;99.90
19025;DHT22;9645;51.448;6.260;2022-12-07T07:56:06;2.60;99.90
19025;DHT22;9645;51.448;6.260;2022-12-07T08:01:05;2.60;99.90
19025;DHT22;9645;51.448;6.260;2022-12-07T08:03:33;2.70;99.90
19025;DHT22;9645;51.448;6.260;2022-12-07T08:06:01;2.70;99.90
19025;DHT22;9645;51.448;6.260;2022-12-07T08:08:28;2.70;99.90
19025;DHT22;9645;51.448;6.260;2022-12-07T08:10:55;2.90;99.90
19025;DHT22;9645;51.448;6.260;2022-12-07T08:13:26;2.90;99.90
19025;DHT22;9645;51.448;6.260;2022-12-07T08:15:53;3.00;99.90
19025;DHT22;9645;51.448;6.260;2022-12-07T08:18:25;3.10;99.90
19025;DHT22;9645;51.448;6.260;2022-12-07T08:20:52;3.30;99.90
19025;DHT22;9645;51.448;6.260;2022-12-07T08:25:52;3.40;99.90
19025;DHT22;9645;51.448;6.260;2022-12-07T08:28:20;3.50;99.90
19025;DHT22;9645;51.448;6.260;2022-12-07T08:35:52;3.40;99.90
19025;DHT22;9645;51.448;6.260;2022-12-07T08:38:19;3.40;99.90
19025;DHT22;9645;51.448;6.260;2022-12-07T08:40:53;3.40;99.90
19025;DHT22;9645;51.448;6.260;2022-12-07T08:43:21;3.40;99.90
19025;DHT22;9645;51.448;6.260;2022-12-07T08:45:49;3.50;99.90
19025;DHT22;9645;51.448;6.260;2022-12-07T08:48:19;3.60;99.90
19025;DHT22;9645;51.448;6.260;2022-12-07T08:50:51;3.80;99.90
19025;DHT22;9645;51.448;6.260;2022-12-07T08:53:18;4.00;99.90
19025;DHT22;9645;51.448;6.260;2022-12-07T08:55:46;4.10;99.90
19025;DHT22;9645;51.448;6.260;2022-12-07T08:58:13;4.30;99.90
19025;DHT22;9645;51.448;6.260;2022-12-07T09:05:35;4.70;99.90
19025;DHT22;9645;51.448;6.260;2022-12-07T09:08:03;4.60;99.90
19025;DHT22;9645;51.448;6.260;2022-12-07T09:10:30;4.60;99.90
19025;DHT22;9645;51.448;6.260;2022-12-07T09:12:57;4.50;99.90
19025;DHT22;9645;51.448;6.260;2022-12-07T09:15:26;4.40;99.90
19025;DHT22;9645;51.448;6.260;2022-12-07T09:17:56;4.20;99.90
19025;DHT22;9645;51.448;6.260;2022-12-07T09:20:23;4.30;99.90
19025;DHT22;9645;51.448;6.260;2022-12-07T09:25:19;4.20;99.90
19025;DHT22;9645;51.448;6.260;2022-12-07T09:27:58;4.20;99.90
19025;DHT22;9645;51.448;6.260;2022-12-07T09:30:26;4.20;99.90
19025;DHT22;9645;51.448;6.260;2022-12-07T09:32:55;4.30;99.90
19025;DHT22;9645;51.448;6.260;2022-12-07T09:35:24;4.20;99.90
19025;DHT22;9645;51.448;6.260;2022-12-07T09:37:51;4.20;99.90
19025;DHT22;9645;51.448;6.260;2022-12-07T09:40:21;4.20;99.90
19025;DHT22;9645;51.448;6.260;2022-12-07T09:42:51;4.30;99.90
19025;DHT22;9645;51.448;6.260;2022-12-07T09:45:22;4.40;99.90
19025;DHT22;9645;51.448;6.260;2022-12-07T09:47:50;4.70;99.90
19025;DHT22;9645;51.448;6.260;2022-12-07T09:50:21;4.60;99.90
19025;DHT22;9645;51.448;6.260;2022-12-07T09:52:50;5.20;99.90
19025;DHT22;9645;51.448;6.260;2022-12-07T09:55:22;5.90;99.90
19025;DHT22;9645;51.448;6.260;2022-12-07T10:00:19;6.90;99.90
19025;DHT22;9645;51.448;6.260;2022-12-07T10:02:50;7.30;99.90
19025;DHT22;9645;51.448;6.260;2022-12-07T10:05:22;7.80;99.90
19025;DHT22;9645;51.448;6.260;2022-12-07T10:07:51;7.80;99.90
19025;DHT22;9645;51.448;6.260;2022-12-07T10:10:23;8.70;99.90
19025;DHT22;9645;51.448;6.260;2022-12-07T10:12:56;8.50;99.90
19025;DHT22;9645;51.448;6.260;2022-12-07T10:15:23;8.20;99.90
19025;DHT22;9645;51.448;6.260;2022-12-07T10:17:51;7.80;99.90
19025;DHT22;9645;51.448;6.260;2022-12-07T10:20:22;7.30;99.90
19025;DHT22;9645;51.448;6.260;2022-12-07T10:22:58;6.90;99.90
19025;DHT22;9645;51.448;6.260;2022-12-07T10:25:29;6.60;99.90
19025;DHT22;9645;51.448;6.260;2022-12-07T10:28:10;6.30;99.90
19025;DHT22;9645;51.448;6.260;2022-12-07T10:30:48;6.20;99.90
19025;DHT22;9645;51.448;6.260;2022-12-07T10:33:28;6.10;99.90
19025;DHT22;9645;51.448;6.260;2022-12-07T10:35:55;6.10;99.90
19025;DHT22;9645;51.448;6.260;2022-12-07T10:38:24;6.10;99.90
19025;DHT22;9645;51.448;6.260;2022-12-07T10:41:05;6.30;99.90
19025;DHT22;9645;51.448;6.260;2022-12-07T10:43:33;6.80;99.90
19025;DHT22;9645;51.448;6.260;2022-12-07T10:49:18;8.20;99.90
19025;DHT22;9645;51.448;6.260;2022-12-07T10:51:55;7.90;99.90
19025;DHT22;9645;51.448;6.260;2022-12-07T10:54:29;8.50;99.90
19025;DHT22;9645;51.448;6.260;2022-12-07T10:57:24;8.40;99.90
19025;DHT22;9645;51.448;6.260;2022-12-07T11:00:18;9.20;99.90
19025;DHT22;9645;51.448;6.260;2022-12-07T11:03:17;10.20;99.90
19025;DHT22;9645;51.448;6.260;2022-12-07T11:05:53;10.70;99.90
19025;DHT22;9645;51.448;6.260;2022-12-07T11:08:38;10.30;99.90
19025;DHT22;9645;51.448;6.260;2022-12-07T11:11:11;9.60;99.90
19025;DHT22;9645;51.448;6.260;2022-12-07T11:13:47;8.90;99.90
19025;DHT22;9645;51.448;6.260;2022-12-07T11:16:21;8.60;99.90
19025;DHT22;9645;51.448;6.260;2022-12-07T11:18:59;8.30;99.90
19025;DHT22;9645;51.448;6.260;2022-12-07T11:21:32;8.20;99.90
19025;DHT22;9645;51.448;6.260;2022-12-07T11:24:05;8.50;99.90
19025;DHT22;9645;51.448;6.260;2022-12-07T11:26:52;8.60;99.90
19025;DHT22;9645;51.448;6.260;2022-12-07T11:29:39;8.40;99.90
19025;DHT22;9645;51.448;6.260;2022-12-07T11:32:15;8.20;99.90
19025;DHT22;9645;51.448;6.260;2022-12-07T11:34:53;8.10;99.90
19025;DHT22;9645;51.448;6.260;2022-12-07T11:37:28;7.70;99.90
19025;DHT22;9645;51.448;6.260;2022-12-07T11:40:00;7.60;99.90
19025;DHT22;9645;51.448;6.260;2022-12-07T11:42:31;7.60;99.90
19025;DHT22;9645;51.448;6.260;2022-12-07T11:45:10;7.50;99.90
19025;DHT22;9645;51.448;6.260;2022-12-07T11:47:46;7.20;99.90
19025;DHT22;9645;51.448;6.260;2022-12-07T11:50:23;7.10;99.90
19025;DHT22;9645;51.448;6.260;2022-12-07T11:52:54;7.10;99.90
19025;DHT22;9645;51.448;6.260;2022-12-07T11:55:29;6.90;99.90
19025;DHT22;9645;51.448;6.260;2022-12-07T11:58:03;7.10;99.90
19025;DHT22;9645;51.448;6.260;2022-12-07T12:00:33;7.00;99.90
19025;DHT22;9645;51.448;6.260;2022-12-07T12:03:05;6.90;99.90
19025;DHT22;9645;51.448;6.260;2022-12-07T12:05:39;6.90;99.90
19025;DHT22;9645;51.448;6.260;2022-12-07T12:08:13;8.90;99.90
19025;DHT22;9645;51.448;6.260;2022-12-07T12:10:51;7.30;99.90
19025;DHT22;9645;51.448;6.260;2022-12-07T12:19:27;7.50;99.90
19025;DHT22;9645;51.448;6.260;2022-12-07T12:21:57;7.50;99.90
19025;DHT22;9645;51.448;6.260;2022-12-07T12:24:29;7.30;99.90
19025;DHT22;9645;51.448;6.260;2022-12-07T12:27:04;7.30;99.90
19025;DHT22;9645;51.448;6.260;2022-12-07T12:29:34;7.20;99.90
19025;DHT22;9645;51.448;6.260;2022-12-07T12:32:12;7.20;99.90
19025;DHT22;9645;51.448;6.260;2022-12-07T12:34:41;7.00;99.90
19025;DHT22;9645;51.448;6.260;2022-12-07T12:37:42;7.00;99.90
19025;DHT22;9645;51.448;6.260;2022-12-07T12:40:38;7.00;99.90
19025;DHT22;9645;51.448;6.260;2022-12-07T12:43:42;7.10;99.90
19025;DHT22;9645;51.448;6.260;2022-12-07T12:49:41;7.00;99.90
19025;DHT22;9645;51.448;6.260;2022-12-07T12:58:42;7.50;99.90
19025;DHT22;9645;51.448;6.260;2022-12-07T13:01:44;7.50;99.90
19025;DHT22;9645;51.448;6.260;2022-12-07T13:04:47;7.60;99.90
19025;DHT22;9645;51.448;6.260;2022-12-07T13:10:24;7.60;99.90
19025;DHT22;9645;51.448;6.260;2022-12-07T13:12:57;7.40;99.90
19025;DHT22;9645;51.448;6.260;2022-12-07T13:15:35;7.40;99.90
19025;DHT22;9645;51.448;6.260;2022-12-07T13:18:24;7.40;99.90
19025;DHT22;9645;51.448;6.260;2022-12-07T13:20:57;7.40;99.90
19025;DHT22;9645;51.448;6.260;2022-12-07T13:23:27;7.30;99.90
19025;DHT22;9645;51.448;6.260;2022-12-07T13:26:09;7.40;99.90
19025;DHT22;9645;51.448;6.260;2022-12-07T13:28:39;7.40;99.90
19025;DHT22;9645;51.448;6.260;2022-12-07T13:31:14;7.30;99.90
19025;DHT22;9645;51.448;6.260;2022-12-07T13:33:46;7.30;99.90
19025;DHT22;9645;51.448;6.260;2022-12-07T13:36:22;7.20;99.90
19025;DHT22;9645;51.448;6.260;2022-12-07T13:38:52;7.20;99.90
19025;DHT22;9645;51.448;6.260;2022-12-07T13:41:20;7.10;99.90
19025;DHT22;9645;51.448;6.260;2022-12-07T13:43:51;7.00;99.90
19025;DHT22;9645;51.448;6.260;2022-12-07T13:46:23;7.00;99.90
19025;DHT22;9645;51.448;6.260;2022-12-07T13:48:51;7.00;99.90
19025;DHT22;9645;51.448;6.260;2022-12-07T13:51:25;6.90;99.90
19025;DHT22;9645;51.448;6.260;2022-12-07T13:53:54;6.90;99.90
19025;DHT22;9645;51.448;6.260;2022-12-07T13:56:25;6.80;99.90
19025;DHT22;9645;51.448;6.260;2022-12-07T14:01:20;6.80;99.90
19025;DHT22;9645;51.448;6.260;2022-12-07T14:03:47;6.80;99.90
19025;DHT22;9645;51.448;6.260;2022-12-07T14:06:17;6.70;99.90
19025;DHT22;9645;51.448;6.260;2022-12-07T14:08:46;6.60;99.90
19025;DHT22;9645;51.448;6.260;2022-12-07T14:11:16;6.50;99.90
19025;DHT22;9645;51.448;6.260;2022-12-07T14:13:58;6.50;99.90
19025;DHT22;9645;51.448;6.260;2022-12-07T14:16:28;6.50;99.90
19025;DHT22;9645;51.448;6.260;2022-12-07T14:18:57;6.40;99.90
19025;DHT22;9645;51.448;6.260;2022-12-07T14:21:25;6.30;99.90
19025;DHT22;9645;51.448;6.260;2022-12-07T14:24:17;6.40;99.90
19025;DHT22;9645;51.448;6.260;2022-12-07T14:26:44;6.40;99.90
19025;DHT22;9645;51.448;6.260;2022-12-07T14:29:29;6.30;99.90
19025;DHT22;9645;51.448;6.260;2022-12-07T14:31:57;6.20;99.90
19025;DHT22;9645;51.448;6.260;2022-12-07T14:36:51;6.00;99.90
19025;DHT22;9645;51.448;6.260;2022-12-07T14:39:20;5.90;99.90
19025;DHT22;9645;51.448;6.260;2022-12-07T14:41:47;5.90;99.90
19025;DHT22;9645;51.448;6.260;2022-12-07T14:44:18;5.80;99.90
19025;DHT22;9645;51.448;6.260;2022-12-07T14:46:50;5.70;99.90
19025;DHT22;9645;51.448;6.260;2022-12-07T14:49:18;5.60;99.90
19025;DHT22;9645;51.448;6.260;2022-12-07T14:51:47;5.60;99.90
19025;DHT22;9645;51.448;6.260;2022-12-07T14:54:16;5.60;99.90
19025;DHT22;9645;51.448;6.260;2022-12-07T14:56:45;5.50;99.90
19025;DHT22;9645;51.448;6.260;2022-12-07T14:59:15;5.40;99.90
19025;DHT22;9645;51.448;6.260;2022-12-07T15:01:42;5.40;99.90
19025;DHT22;9645;51.448;6.260;2022-12-07T15:04:09;5.20;99.90
19025;DHT22;9645;51.448;6.260;2022-12-07T15:09:03;4.90;99.90
19025;DHT22;9645;51.448;6.260;2022-12-07T15:11:30;4.80;99.90
19025;DHT22;9645;51.448;6.260;2022-12-07T15:13:59;4.80;99.90
19025;DHT22;9645;51.448;6.260;2022-12-07T15:16:37;4.90;99.90
19025;DHT22;9645;51.448;6.260;2022-12-07T15:19:08;4.90;99.90
19025;DHT22;9645;51.448;6.260;2022-12-07T15:21:39;4.90;99.90
19025;DHT22;9645;51.448;6.260;2022-12-07T15:24:07;5.00;99.90
19025;DHT22;9645;51.448;6.260;2022-12-07T15:26:34;5.00;99.90
19025;DHT22;9645;51.448;6.260;2022-12-07T15:29:03;4.90;99.90
19025;DHT22;9645;51.448;6.260;2022-12-07T15:31:30;5.00;99.90
19025;DHT22;9645;51.448;6.260;2022-12-07T15:33:57;4.90;99.90
19025;DHT22;9645;51.448;6.260;2022-12-07T15:36:26;4.90;99.90
19025;DHT22;9645;51.448;6.260;2022-12-07T15:38:53;4.90;99.90
19025;DHT22;9645;51.448;6.260;2022-12-07T15:41:22;4.80;99.90
19025;DHT22;9645;51.448;6.260;2022-12-07T15:43:49;4.80;99.90
19025;DHT22;9645;51.448;6.260;2022-12-07T15:46:36;4.80;99.90
19025;DHT22;9645;51.448;6.260;2022-12-07T15:49:05;4.80;99.90
19025;DHT22;9645;51.448;6.260;2022-12-07T15:51:32;4.80;99.90
19025;DHT22;9645;51.448;6.260;2022-12-07T15:54:00;4.80;99.90
19025;DHT22;9645;51.448;6.260;2022-12-07T15:56:27;4.70;99.90
19025;DHT22;9645;51.448;6.260;2022-12-07T15:58:56;4.70;99.90
19025;DHT22;9645;51.448;6.260;2022-12-07T16:01:23;4.80;99.90
19025;DHT22;9645;51.448;6.260;2022-12-07T16:03:51;4.80;99.90
19025;DHT22;9645;51.448;6.260;2022-12-07T16:06:18;4.70;99.90
19025;DHT22;9645;51.448;6.260;2022-12-07T16:08:46;4.90;99.90
19025;DHT22;9645;51.448;6.260;2022-12-07T16:11:14;4.80;99.90
19025;DHT22;9645;51.448;6.260;2022-12-07T16:13:41;4.80;99.90
19025;DHT22;9645;51.448;6.260;2022-12-07T16:16:10;4.70;99.90
19025;DHT22;9645;51.448;6.260;2022-12-07T16:18:38;4.60;99.90
19025;DHT22;9645;51.448;6.260;2022-12-07T16:21:06;4.60;99.90
19025;DHT22;9645;51.448;6.260;2022-12-07T16:23:34;4.60;99.90
19025;DHT22;9645;51.448;6.260;2022-12-07T16:26:05;4.60;99.90
19025;DHT22;9645;51.448;6.260;2022-12-07T16:28:32;4.50;99.90
19025;DHT22;9645;51.448;6.260;2022-12-07T16:31:04;4.40;99.90
19025;DHT22;9645;51.448;6.260;2022-12-07T16:33:33;4.50;99.90
19025;DHT22;9645;51.448;6.260;2022-12-07T16:36:01;4.50;99.90
19025;DHT22;9645;51.448;6.260;2022-12-07T16:38:29;4.50;99.90
19025;DHT22;9645;51.448;6.260;2022-12-07T16:40:56;4.40;99.90
19025;DHT22;9645;51.448;6.260;2022-12-07T16:43:23;4.50;99.90
19025;DHT22;9645;51.448;6.260;2022-12-07T16:45:50;4.40;99.90
19025;DHT22;9645;51.448;6.260;2022-12-07T16:48:17;4.30;99.90
19025;DHT22;9645;51.448;6.260;2022-12-07T16:50:45;4.30;99.90
19025;DHT22;9645;51.448;6.260;2022-12-07T16:53:12;4.30;99.90
19025;DHT22;9645;51.448;6.260;2022-12-07T16:55:43;4.30;99.90
19025;DHT22;9645;51.448;6.260;2022-12-07T16:58:10;4.20;99.90
19025;DHT22;9645;51.448;6.260;2022-12-07T17:00:39;4.20;99.90
19025;DHT22;9645;51.448;6.260;2022-12-07T17:03:06;4.20;99.90
19025;DHT22;9645;51.448;6.260;2022-12-07T17:05:33;4.20;99.90
19025;DHT22;9645;51.448;6.260;2022-12-07T17:08:01;4.10;99.90
19025;DHT22;9645;51.448;6.260;2022-12-07T17:10:28;4.10;99.90
19025;DHT22;9645;51.448;6.260;2022-12-07T17:12:57;4.10;99.90
19025;DHT22;9645;51.448;6.260;2022-12-07T17:15:24;4.10;99.90
19025;DHT22;9645;51.448;6.260;2022-12-07T17:17:52;4.00;99.90
19025;DHT22;9645;51.448;6.260;2022-12-07T17:20:21;4.10;99.90
19025;DHT22;9645;51.448;6.260;2022-12-07T17:22:48;4.00;99.90
19025;DHT22;9645;51.448;6.260;2022-12-07T17:25:15;4.00;99.90
19025;DHT22;9645;51.448;6.260;2022-12-07T17:27:43;4.00;99.90
19025;DHT22;9645;51.448;6.260;2022-12-07T17:30:12;4.00;99.90
19025;DHT22;9645;51.448;6.260;2022-12-07T17:32:40;3.90;99.90
19025;DHT22;9645;51.448;6.260;2022-12-07T17:35:07;3.90;99.90
19025;DHT22;9645;51.448;6.260;2022-12-07T17:37:34;3.90;99.90
19025;DHT22;9645;51.448;6.260;2022-12-07T17:40:01;3.90;99.90
19025;DHT22;9645;51.448;6.260;2022-12-07T17:42:28;3.90;99.90
19025;DHT22;9645;51.448;6.260;2022-12-07T17:45:08;3.70;99.90
19025;DHT22;9645;51.448;6.260;2022-12-07T17:47:37;3.70;99.90
19025;DHT22;9645;51.448;6.260;2022-12-07T17:50:06;3.80;99.90
19025;DHT22;9645;51.448;6.260;2022-12-07T17:55:18;3.80;99.90
19025;DHT22;9645;51.448;6.260;2022-12-07T18:00:13;3.70;99.90
19025;DHT22;9645;51.448;6.260;2022-12-07T18:02:42;3.70;99.90
19025;DHT22;9645;51.448;6.260;2022-12-07T18:05:09;3.70;99.90
19025;DHT22;9645;51.448;6.260;2022-12-07T18:07:36;1.90;99.90